Aérodrome :
LOGIN :

S'inscrire | Disclaimer

   EN    FR    IT 

 










Légende :    VFR   VFR Marginal   IFR   IFR Intensif   IFR Très Intensif
Visi : 
Plafond : 
>= 8 km
>= 3000ft
5 à 8 km
1000 à 3000 ft
1500m à 5 km
500 à 1000 ft
800 à 1500m
200 à 500 ft
< 800m
< 200 ft
Symboles :   Orages  Brouillard  Fortes neiges  Fortes précipitations  Vent > 20 kt
SIGMETs :   Divers  Orages  Givrage  Turbulence  Onde Orograph.  Cendres Volcan.






- Altitude de l'aérodrome : 697 ft
- Code IATA : PEG


LIRZ - San Edigio Perugia

DERNIER METAR :
  • 011120Z AUTO 02004KT //// // BKN019/// BKN046/// 06/04 Q1014

METARs EXPIRÉS :
  • 011050Z AUTO VRB01KT //// // BKN016/// 07/03 Q1014
  • 011020Z AUTO 23004KT //// // BKN016/// 05/03 Q1015
  • 010950Z AUTO VRB01KT //// // OVC015/// 05/02 Q1015
  • 010920Z AUTO VRB02KT //// // OVC017/// 05/02 Q1016
  • 010850Z AUTO 35004KT 300V020 //// // BKN021/// BKN078/// 05/02 Q1016

TAF TAF LIRZ
Valide du 01 à 12h jusqu'au 02 à 12h UTC


011100Z 0112/0212 VRB05KT 9999 SCT030
TEMPO 0115/0203 SHRA
BECMG 0206/0208 17010KT
TEMPO 0209/0212 SHRA



MET'MAP, la Météo Aéronautique d'un coup d'oeil ! - Copyright ORBIFLY Décembre 2007 - Disclaimer

ORBIFLY MET'MAP TEAM :

Programmation & Développement : Alexandra Zaïnal
Sur une idée originale de : Baudouin d'Aumeries
Assistance à la programmation : Marc-Olivier Méhu
Soutien technique & logistique : Manuel Goepfert

Contact : metmap@orbifly.com




SOURCES & CREDITS :

   NOAA